createdAt,value
2023-05-03T00:00:23.728Z,74.80
2023-05-03T00:01:55.875Z,75.26
2023-05-03T00:03:32.126Z,75.09
2023-05-03T00:05:05.907Z,74.58
2023-05-03T00:06:39.021Z,75.09
2023-05-03T00:08:11.374Z,75.86
2023-05-03T00:09:43.518Z,76.29
2023-05-03T00:11:15.567Z,76.26
2023-05-03T00:12:47.656Z,76.65
2023-05-03T00:14:19.945Z,76.81
2023-05-03T00:15:51.982Z,77.11
2023-05-03T00:17:24.114Z,77.32
2023-05-03T00:18:56.241Z,76.97
2023-05-03T00:20:28.353Z,77.07
2023-05-03T00:22:00.708Z,77.22
2023-05-03T00:23:32.777Z,77.75
2023-05-03T00:25:05.169Z,77.98
2023-05-03T00:26:37.245Z,78.07
2023-05-03T00:28:09.520Z,78.12
2023-05-03T00:29:41.614Z,77.99
2023-05-03T00:31:13.775Z,78.14
2023-05-03T00:32:45.912Z,77.93
2023-05-03T00:34:18.142Z,77.18
2023-05-03T00:35:50.254Z,77.78
2023-05-03T00:37:22.846Z,77.65
2023-05-03T00:38:55.469Z,77.33
2023-05-03T00:40:27.603Z,77.09
2023-05-03T00:42:00.579Z,76.98
2023-05-03T00:43:33.008Z,76.94
2023-05-03T00:45:06.512Z,77.15
2023-05-03T00:46:38.445Z,76.95
2023-05-03T00:48:10.777Z,76.99
2023-05-03T00:49:43.126Z,77.23
2023-05-03T00:51:16.032Z,77.24
2023-05-03T00:52:48.130Z,77.33
2023-05-03T00:54:21.172Z,77.59
2023-05-03T00:55:53.987Z,77.82
2023-05-03T00:57:27.010Z,77.43
2023-05-03T00:58:59.065Z,77.30
2023-05-03T01:00:32.827Z,77.11
2023-05-03T01:02:04.964Z,76.94
2023-05-03T01:03:38.108Z,76.34
2023-05-03T01:05:11.328Z,76.30
2023-05-03T01:07:22.448Z,76.43
2023-05-03T01:09:00.962Z,75.89
2023-05-03T01:11:11.997Z,75.89
2023-05-03T01:13:23.816Z,74.79
2023-05-03T01:15:14.450Z,74.74
2023-05-03T01:16:56.478Z,75.84
2023-05-03T01:18:34.857Z,76.78
2023-05-03T01:20:09.155Z,77.02
2023-05-03T01:21:43.689Z,77.13
2023-05-03T01:23:26.579Z,76.70
2023-05-03T01:26:31.530Z,75.85
2023-05-03T01:28:03.810Z,76.08
2023-05-03T01:29:36.429Z,76.07
2023-05-03T01:31:11.278Z,76.88
2023-05-03T01:32:58.535Z,77.04
2023-05-03T01:34:51.679Z,76.22
2023-05-03T01:36:28.328Z,75.75
2023-05-03T01:38:01.050Z,75.40
2023-05-03T01:39:39.352Z,75.04
2023-05-03T01:41:12.958Z,75.98
2023-05-03T01:42:45.038Z,76.60
2023-05-03T01:44:17.132Z,77.50
2023-05-03T01:45:49.519Z,78.09
2023-05-03T01:47:21.787Z,77.23
2023-05-03T01:48:53.772Z,76.96
2023-05-03T01:50:26.244Z,76.69
2023-05-03T01:51:58.307Z,76.66
2023-05-03T01:53:30.441Z,76.78
2023-05-03T01:55:02.516Z,77.20
2023-05-03T01:56:35.998Z,76.68
2023-05-03T01:58:07.991Z,76.47
2023-05-03T01:59:40.176Z,76.23
2023-05-03T02:01:12.274Z,75.48
2023-05-03T02:02:44.333Z,75.18
2023-05-03T02:04:16.482Z,75.08
2023-05-03T02:05:49.124Z,74.70
2023-05-03T02:07:21.301Z,75.65
2023-05-03T02:08:54.794Z,76.28
2023-05-03T02:10:26.869Z,76.77
2023-05-03T02:11:59.054Z,77.30
2023-05-03T02:13:31.165Z,77.07
2023-05-03T02:15:03.304Z,76.64
2023-05-03T02:16:35.344Z,76.25
2023-05-03T02:18:09.044Z,75.87
2023-05-03T02:19:41.124Z,75.66
2023-05-03T02:21:13.634Z,75.68
2023-05-03T02:22:45.696Z,75.47
2023-05-03T02:24:18.044Z,76.20
2023-05-03T02:25:50.190Z,76.83
2023-05-03T02:27:22.151Z,77.31
2023-05-03T02:28:54.337Z,77.37
2023-05-03T02:30:26.594Z,78.10
2023-05-03T02:31:58.886Z,78.56
2023-05-03T02:33:30.982Z,79.05
2023-05-03T02:35:03.371Z,78.59
2023-05-03T02:36:35.551Z,78.00
2023-05-03T02:38:10.728Z,78.04
2023-05-03T02:39:42.771Z,77.76
2023-05-03T02:41:14.993Z,77.70
2023-05-03T02:42:47.098Z,77.29
2023-05-03T02:44:19.188Z,77.06
2023-05-03T02:45:51.289Z,76.92
2023-05-03T02:47:24.060Z,76.48
2023-05-03T02:48:56.326Z,76.11
2023-05-03T02:50:28.569Z,75.83
2023-05-03T02:52:00.833Z,75.80
2023-05-03T02:53:32.913Z,76.16
2023-05-03T02:55:06.176Z,76.65
2023-05-03T02:56:38.763Z,77.77
2023-05-03T02:58:10.882Z,77.97
2023-05-03T02:59:42.982Z,77.60
2023-05-03T03:01:15.224Z,77.17
2023-05-03T03:02:47.447Z,76.38
2023-05-03T03:04:19.668Z,76.03
2023-05-03T03:05:51.811Z,75.04
2023-05-03T03:07:23.980Z,74.63
2023-05-03T03:08:56.252Z,74.57
2023-05-03T03:10:28.357Z,75.22
2023-05-03T03:12:03.283Z,75.62
2023-05-03T03:13:40.001Z,75.70
2023-05-03T03:15:12.325Z,75.36
2023-05-03T03:16:46.336Z,74.90
2023-05-03T03:18:19.738Z,74.36
2023-05-03T03:19:51.981Z,74.11
2023-05-03T03:21:24.134Z,74.13
2023-05-03T03:22:56.327Z,74.41
2023-05-03T03:24:28.472Z,74.86
2023-05-03T03:26:00.766Z,75.18
2023-05-03T03:27:33.641Z,75.95
2023-05-03T03:29:05.733Z,76.34
2023-05-03T03:30:37.820Z,77.42
2023-05-03T03:32:09.941Z,78.31
2023-05-03T03:33:42.157Z,79.09
2023-05-03T03:35:15.048Z,79.67
2023-05-03T03:36:47.319Z,79.92
2023-05-03T03:38:19.761Z,80.14
2023-05-03T03:39:51.822Z,80.12
2023-05-03T03:41:23.985Z,80.98
2023-05-03T03:42:56.160Z,81.49
2023-05-03T03:44:28.309Z,81.50
2023-05-03T03:46:00.419Z,81.69
2023-05-03T03:47:33.287Z,82.02
2023-05-03T03:49:05.431Z,81.81
2023-05-03T03:50:37.834Z,81.83
2023-05-03T03:52:09.986Z,81.77
2023-05-03T03:53:42.438Z,81.98
2023-05-03T03:55:14.683Z,82.10
2023-05-03T03:56:46.732Z,82.28
2023-05-03T03:59:54.687Z,83.19
2023-05-03T04:01:27.383Z,83.76
2023-05-03T04:02:59.595Z,84.12
2023-05-03T04:04:32.372Z,84.25
2023-05-03T04:06:04.701Z,84.16
2023-05-03T04:07:36.867Z,83.93
2023-05-03T04:09:09.570Z,83.96
2023-05-03T04:10:41.827Z,84.25
2023-05-03T04:12:14.172Z,84.47
2023-05-03T04:13:46.279Z,85.06
2023-05-03T04:15:18.480Z,85.48
2023-05-03T04:16:50.749Z,85.77
2023-05-03T04:18:23.442Z,85.57
2023-05-03T04:19:56.257Z,85.78
2023-05-03T04:21:28.792Z,86.06
2023-05-03T04:23:01.221Z,86.12
2023-05-03T04:24:33.375Z,86.32
2023-05-03T04:26:05.577Z,86.54
2023-05-03T04:27:38.685Z,86.68
2023-05-03T04:29:12.076Z,87.14
2023-05-03T04:30:45.478Z,87.42
2023-05-03T04:32:17.506Z,87.34
2023-05-03T04:33:49.567Z,87.34
2023-05-03T04:35:21.860Z,87.49
2023-05-03T04:36:53.935Z,87.72
2023-05-03T04:38:26.022Z,87.42
2023-05-03T04:39:58.248Z,88.03
2023-05-03T04:41:30.560Z,88.17
2023-05-03T04:43:02.648Z,88.46
2023-05-03T04:44:34.780Z,88.42
2023-05-03T04:46:07.101Z,88.79
2023-05-03T04:47:39.514Z,88.59
2023-05-03T04:49:11.733Z,88.69
2023-05-03T04:50:43.848Z,88.63
2023-05-03T04:52:15.982Z,88.58
2023-05-03T04:53:48.186Z,88.36
2023-05-03T04:55:20.270Z,88.74
2023-05-03T04:56:53.150Z,88.70
2023-05-03T04:58:25.439Z,88.74
2023-05-03T04:59:57.663Z,88.87
2023-05-03T05:01:30.309Z,88.56
2023-05-03T05:03:06.809Z,88.43
2023-05-03T05:04:39.017Z,88.26
2023-05-03T05:06:12.808Z,88.19
2023-05-03T05:07:44.944Z,88.36
2023-05-03T05:09:29.056Z,88.57
2023-05-03T05:11:04.913Z,88.36
2023-05-03T05:12:36.974Z,88.56
2023-05-03T05:14:09.377Z,88.75
2023-05-03T05:15:41.531Z,88.82
2023-05-03T05:17:13.625Z,89.29
2023-05-03T05:18:46.374Z,89.51
2023-05-03T05:20:20.991Z,89.68
2023-05-03T05:21:53.285Z,89.75
2023-05-03T05:23:25.387Z,89.90
2023-05-03T05:24:57.705Z,90.06
2023-05-03T05:26:29.917Z,90.32
2023-05-03T05:28:01.987Z,90.37
2023-05-03T05:29:34.087Z,90.72
2023-05-03T05:31:06.255Z,90.74
2023-05-03T05:32:38.494Z,90.91
2023-05-03T05:34:10.887Z,90.80
2023-05-03T05:35:43.045Z,90.72
2023-05-03T05:37:15.448Z,90.71
2023-05-03T05:38:47.539Z,90.85
2023-05-03T05:40:19.632Z,90.86
2023-05-03T05:41:51.839Z,91.08
2023-05-03T05:43:24.016Z,90.68
2023-05-03T05:44:57.603Z,90.37
2023-05-03T05:46:30.084Z,89.93
2023-05-03T05:48:02.661Z,89.63
2023-05-03T05:49:34.928Z,89.72
2023-05-03T05:51:07.091Z,89.55
2023-05-03T05:52:39.237Z,89.19
2023-05-03T05:54:11.836Z,89.39
2023-05-03T05:55:43.917Z,89.44
2023-05-03T05:57:16.147Z,89.46
2023-05-03T05:58:48.328Z,89.64
2023-05-03T06:00:21.930Z,89.20
2023-05-03T06:01:54.062Z,88.53
2023-05-03T06:03:26.550Z,88.10
2023-05-03T06:04:58.760Z,87.76
2023-05-03T06:06:31.880Z,88.04
2023-05-03T06:08:04.530Z,87.65
2023-05-03T06:09:38.876Z,88.04
2023-05-03T06:11:14.496Z,88.32
2023-05-03T06:12:46.576Z,88.79
2023-05-03T06:14:21.061Z,89.19
2023-05-03T06:15:54.205Z,89.42
2023-05-03T06:17:27.362Z,89.64
2023-05-03T06:18:59.944Z,90.03
2023-05-03T06:20:32.091Z,90.13
2023-05-03T06:22:05.761Z,90.12
2023-05-03T06:23:40.099Z,90.31
2023-05-03T06:25:16.269Z,90.57
2023-05-03T06:26:49.906Z,90.69
2023-05-03T06:28:22.182Z,91.11
2023-05-03T06:29:54.382Z,91.46
2023-05-03T06:31:26.482Z,91.36
2023-05-03T06:32:58.664Z,91.63
2023-05-03T06:34:30.891Z,91.26
2023-05-03T06:36:03.058Z,91.16
2023-05-03T06:37:35.664Z,91.25
2023-05-03T06:39:09.885Z,91.36
2023-05-03T06:40:42.059Z,91.55
2023-05-03T06:42:14.253Z,91.16
2023-05-03T06:43:46.827Z,90.79
2023-05-03T06:45:19.070Z,90.24
2023-05-03T06:46:51.978Z,89.92
2023-05-03T06:48:24.194Z,89.74
2023-05-03T06:49:59.510Z,89.46
2023-05-03T06:51:33.416Z,89.67
2023-05-03T06:53:05.562Z,89.81
2023-05-03T06:54:37.700Z,89.25
2023-05-03T06:56:09.899Z,89.41
2023-05-03T06:57:43.125Z,89.00
2023-05-03T06:59:15.398Z,88.25
2023-05-03T07:00:47.614Z,87.64
2023-05-03T07:02:19.664Z,88.03
2023-05-03T07:03:51.993Z,88.78
2023-05-03T07:05:24.282Z,88.87
2023-05-03T07:06:59.278Z,89.08
2023-05-03T07:08:31.882Z,88.93
2023-05-03T07:10:04.928Z,88.41
2023-05-03T07:11:39.706Z,87.85
2023-05-03T07:13:11.645Z,87.17
2023-05-03T07:14:43.817Z,86.78
2023-05-03T07:16:16.045Z,86.47
2023-05-03T07:17:48.189Z,85.99
2023-05-03T07:19:20.370Z,85.71
2023-05-03T07:20:52.401Z,86.33
2023-05-03T07:22:27.875Z,86.28
2023-05-03T07:24:00.356Z,86.10
2023-05-03T07:25:33.298Z,86.40
2023-05-03T07:27:05.657Z,86.21
2023-05-03T07:28:37.754Z,86.14
2023-05-03T07:30:10.851Z,86.32
2023-05-03T07:31:44.756Z,86.03
2023-05-03T07:33:17.085Z,85.69
2023-05-03T07:34:49.252Z,85.53
2023-05-03T07:36:21.432Z,85.51
2023-05-03T07:37:53.702Z,85.25
2023-05-03T07:39:25.805Z,85.26
2023-05-03T07:40:57.932Z,85.66
2023-05-03T07:42:30.129Z,86.01
2023-05-03T07:44:02.264Z,85.94
2023-05-03T07:45:34.453Z,85.26
2023-05-03T07:47:06.689Z,85.30
2023-05-03T07:48:38.870Z,85.67
2023-05-03T07:50:11.166Z,85.63
2023-05-03T07:51:43.324Z,84.90
2023-05-03T07:53:15.602Z,85.09
2023-05-03T07:54:47.731Z,83.93
2023-05-03T07:56:20.034Z,83.62
2023-05-03T07:57:52.557Z,82.82
2023-05-03T07:59:24.770Z,81.80
2023-05-03T08:00:57.440Z,80.65
2023-05-03T08:02:29.794Z,80.37
2023-05-03T08:04:02.358Z,76.56
2023-05-03T08:05:36.963Z,74.79
2023-05-03T08:07:09.296Z,76.49
2023-05-03T08:08:43.099Z,76.24
2023-05-03T08:10:15.745Z,75.99
2023-05-03T08:11:47.971Z,76.01
2023-05-03T08:13:20.133Z,74.80
2023-05-03T08:14:56.380Z,75.44
2023-05-03T08:16:28.611Z,75.28
2023-05-03T08:18:00.957Z,70.87
2023-05-03T08:19:33.138Z,71.36
2023-05-03T08:21:05.257Z,72.96
2023-05-03T08:22:38.681Z,71.43
2023-05-03T08:24:11.156Z,70.74
2023-05-03T08:25:43.958Z,70.92
2023-05-03T08:27:16.278Z,70.35
2023-05-03T08:28:48.344Z,68.48
2023-05-03T08:30:22.502Z,69.68
2023-05-03T08:31:54.795Z,70.72
2023-05-03T08:33:26.947Z,70.26
2023-05-03T08:34:59.183Z,70.92
2023-05-03T08:36:32.251Z,70.70
2023-05-03T08:38:05.609Z,69.86
2023-05-03T08:39:37.529Z,70.19
2023-05-03T08:41:17.823Z,69.53
2023-05-03T08:42:53.478Z,69.00
2023-05-03T08:44:29.785Z,68.22
2023-05-03T08:46:01.858Z,68.39
2023-05-03T08:47:37.950Z,68.42
2023-05-03T08:49:10.317Z,69.32
2023-05-03T08:50:42.930Z,67.68
2023-05-03T08:52:16.987Z,67.45
2023-05-03T08:53:49.666Z,67.52
2023-05-03T08:55:21.845Z,67.93
2023-05-03T08:56:54.258Z,67.66
2023-05-03T08:58:26.436Z,67.37
2023-05-03T09:00:02.172Z,67.40
2023-05-03T09:01:36.848Z,68.04
2023-05-03T09:03:09.249Z,67.86
2023-05-03T09:04:41.581Z,68.21
2023-05-03T09:06:26.433Z,67.05
2023-05-03T09:08:12.278Z,66.16
2023-05-03T09:09:46.902Z,65.55
2023-05-03T09:11:26.610Z,64.70
2023-05-03T09:13:02.869Z,65.11
2023-05-03T09:16:06.979Z,68.15
2023-05-03T09:17:39.176Z,65.98
2023-05-03T09:19:13.132Z,65.64
2023-05-03T09:20:52.739Z,65.84
2023-05-03T09:22:29.342Z,64.04
2023-05-03T09:24:02.231Z,65.65
2023-05-03T09:25:51.850Z,60.59
2023-05-03T09:27:25.159Z,61.99
2023-05-03T09:28:58.389Z,61.84
2023-05-03T09:30:30.549Z,61.56
2023-05-03T09:32:07.948Z,62.55
2023-05-03T09:33:40.342Z,64.28
2023-05-03T09:35:14.157Z,64.50
2023-05-03T09:36:48.853Z,65.48
2023-05-03T09:38:32.550Z,65.84
2023-05-03T09:40:09.170Z,65.22
2023-05-03T09:41:41.325Z,64.99
2023-05-03T09:43:18.138Z,65.10
2023-05-03T09:44:54.398Z,64.53
2023-05-03T09:46:27.788Z,64.79
2023-05-03T09:47:59.800Z,64.36
2023-05-03T09:49:33.435Z,64.70
2023-05-03T09:51:05.879Z,63.85
2023-05-03T09:52:38.690Z,63.64
2023-05-03T09:54:10.938Z,63.94
2023-05-03T09:55:43.071Z,64.07
2023-05-03T09:57:15.774Z,64.11
2023-05-03T09:58:48.279Z,63.86
2023-05-03T10:00:21.127Z,63.60
2023-05-03T10:01:57.108Z,64.52
2023-05-03T10:03:35.348Z,63.87
2023-05-03T10:05:08.532Z,64.87
2023-05-03T10:06:44.373Z,64.24
2023-05-03T10:08:27.225Z,62.58
2023-05-03T10:09:59.751Z,60.75
2023-05-03T10:11:34.600Z,59.91
2023-05-03T10:13:07.048Z,61.90
2023-05-03T10:14:43.630Z,64.36
2023-05-03T10:16:20.559Z,61.17
2023-05-03T10:17:53.579Z,58.60
2023-05-03T10:19:28.679Z,63.25
2023-05-03T10:21:12.175Z,59.33
2023-05-03T10:23:10.019Z,54.74
2023-05-03T10:25:00.795Z,52.98
2023-05-03T10:26:33.839Z,54.80
2023-05-03T10:28:07.632Z,56.80
2023-05-03T10:29:49.571Z,55.44
2023-05-03T10:31:48.097Z,57.60
2023-05-03T10:33:20.644Z,54.70
2023-05-03T10:35:09.726Z,54.06
2023-05-03T10:36:49.744Z,57.91
2023-05-03T10:38:24.745Z,55.82
2023-05-03T10:39:59.098Z,52.46
2023-05-03T10:41:33.721Z,52.20
2023-05-03T10:43:06.062Z,51.52
2023-05-03T10:44:50.198Z,51.07
2023-05-03T10:46:33.331Z,52.57
2023-05-03T10:48:11.561Z,56.72
2023-05-03T10:49:44.155Z,56.50
2023-05-03T10:51:29.394Z,57.20
2023-05-03T10:53:01.506Z,50.93
2023-05-03T10:54:33.750Z,51.99
2023-05-03T10:56:11.243Z,51.27
2023-05-03T10:57:44.676Z,52.82
2023-05-03T10:59:17.035Z,49.94
2023-05-03T11:00:50.985Z,49.76
2023-05-03T11:02:29.120Z,49.40
2023-05-03T11:05:35.382Z,49.20
2023-05-03T11:07:07.676Z,51.33
2023-05-03T11:08:39.787Z,47.31
2023-05-03T11:10:21.421Z,50.23
2023-05-03T11:11:53.525Z,47.59
2023-05-03T11:13:26.086Z,53.24
2023-05-03T11:14:58.205Z,54.30
2023-05-03T11:16:31.356Z,51.42
2023-05-03T11:18:03.799Z,51.91
2023-05-03T11:19:35.954Z,50.26
2023-05-03T11:21:08.026Z,49.81
2023-05-03T11:22:40.302Z,50.42
2023-05-03T11:24:12.564Z,49.50
2023-05-03T11:25:44.683Z,49.63
2023-05-03T11:27:24.468Z,52.32
2023-05-03T11:28:56.590Z,49.87
2023-05-03T11:30:30.076Z,48.15
2023-05-03T11:32:02.255Z,48.46
2023-05-03T11:33:37.669Z,45.01
2023-05-03T11:35:10.536Z,46.79
2023-05-03T11:36:43.148Z,46.85
2023-05-03T11:38:15.375Z,48.51
2023-05-03T11:39:48.247Z,48.40
2023-05-03T11:41:20.348Z,46.41
2023-05-03T11:43:01.584Z,43.95
2023-05-03T11:44:33.674Z,49.81
2023-05-03T11:46:06.130Z,47.17
2023-05-03T11:47:39.315Z,48.13
2023-05-03T11:49:11.754Z,46.89
2023-05-03T11:50:57.500Z,44.55
2023-05-03T11:52:29.577Z,45.22
2023-05-03T11:54:12.937Z,45.40
2023-05-03T11:55:55.565Z,45.90
2023-05-03T11:57:30.819Z,44.66
2023-05-03T11:59:03.107Z,45.99
2023-05-03T12:00:37.321Z,47.04
2023-05-03T12:02:11.245Z,50.36
2023-05-03T12:03:43.587Z,49.91
2023-05-03T12:05:18.132Z,50.27
2023-05-03T12:06:54.229Z,49.04
2023-05-03T12:10:23.019Z,50.88
2023-05-03T12:11:58.882Z,52.05
2023-05-03T12:13:38.311Z,49.43
2023-05-03T12:15:15.982Z,51.56
2023-05-03T12:16:52.170Z,51.16
2023-05-03T12:18:24.966Z,48.85
2023-05-03T12:22:18.205Z,51.25
2023-05-03T12:23:50.644Z,49.36
2023-05-03T12:25:25.920Z,50.24
2023-05-03T12:27:01.424Z,48.84
2023-05-03T12:28:34.840Z,49.28
2023-05-03T12:30:09.369Z,47.54
2023-05-03T12:31:43.947Z,50.75
2023-05-03T12:33:17.351Z,52.45
2023-05-03T12:34:51.837Z,51.14
2023-05-03T12:36:26.129Z,50.96
2023-05-03T12:38:01.551Z,50.75
2023-05-03T12:39:39.266Z,53.49
2023-05-03T12:41:15.793Z,53.11
2023-05-03T12:42:49.743Z,53.13
2023-05-03T12:44:23.649Z,52.87
2023-05-03T12:46:17.030Z,53.98
2023-05-03T12:47:51.744Z,54.72
2023-05-03T12:49:24.385Z,54.08
2023-05-03T12:51:17.172Z,52.32
2023-05-03T12:54:26.759Z,50.50
2023-05-03T12:55:59.472Z,53.56
2023-05-03T12:57:36.682Z,50.96
2023-05-03T13:01:37.955Z,52.27
2023-05-03T13:06:12.708Z,49.25
2023-05-03T13:07:53.776Z,49.94
2023-05-03T13:09:37.741Z,46.71
2023-05-03T13:11:20.502Z,48.13
2023-05-03T13:12:54.380Z,46.22
2023-05-03T13:14:28.952Z,47.55
2023-05-03T13:16:04.396Z,47.88
2023-05-03T13:17:36.686Z,49.87
2023-05-03T13:19:08.988Z,50.96
2023-05-03T13:20:41.193Z,51.69
2023-05-03T13:22:14.025Z,51.40
2023-05-03T13:23:47.906Z,52.13
2023-05-03T13:25:20.176Z,52.77
2023-05-03T13:26:52.212Z,51.73
2023-05-03T13:28:25.368Z,50.35
2023-05-03T13:29:57.621Z,48.95
2023-05-03T13:31:30.597Z,49.78
2023-05-03T13:33:02.879Z,49.08
2023-05-03T13:34:35.376Z,48.86
2023-05-03T13:36:11.710Z,48.90
2023-05-03T13:39:17.047Z,51.68
2023-05-03T13:40:49.231Z,52.80
2023-05-03T13:42:21.410Z,53.33
2023-05-03T13:43:53.554Z,52.64
2023-05-03T13:45:25.818Z,49.31
2023-05-03T13:46:58.061Z,49.45
2023-05-03T13:48:32.390Z,49.56
2023-05-03T13:50:05.434Z,49.10
2023-05-03T13:51:38.523Z,49.54
2023-05-03T13:53:10.816Z,49.02
2023-05-03T13:54:42.898Z,51.08
2023-05-03T13:56:15.552Z,50.21
2023-05-03T13:57:47.677Z,50.26
2023-05-03T13:59:19.783Z,48.69
2023-05-03T14:00:51.906Z,49.94
2023-05-03T14:02:24.077Z,50.60
2023-05-03T14:03:56.509Z,53.81
2023-05-03T14:05:28.809Z,54.12
2023-05-03T14:07:03.598Z,53.70
2023-05-03T14:08:35.854Z,54.26
2023-05-03T14:10:09.438Z,54.21
2023-05-03T14:11:42.063Z,55.53
2023-05-03T14:13:14.294Z,54.41
2023-05-03T14:14:46.477Z,58.65
2023-05-03T14:16:35.595Z,60.01
2023-05-03T14:18:12.328Z,60.48
2023-05-03T14:19:44.514Z,60.97
2023-05-03T14:21:18.954Z,63.64
2023-05-03T14:22:51.770Z,65.86
2023-05-03T14:24:23.865Z,67.57
2023-05-03T14:25:56.081Z,68.91
2023-05-03T14:27:28.442Z,67.42
2023-05-03T14:29:00.847Z,68.35
2023-05-03T14:30:33.617Z,70.09
2023-05-03T14:32:06.105Z,71.04
2023-05-03T14:33:38.193Z,72.21
2023-05-03T14:35:10.612Z,73.64
2023-05-03T14:36:44.170Z,73.72
2023-05-03T14:38:16.323Z,72.92
2023-05-03T14:39:48.664Z,74.20
2023-05-03T14:41:22.691Z,73.97
2023-05-03T14:42:55.081Z,73.58
2023-05-03T14:44:27.261Z,74.09
2023-05-03T14:45:59.401Z,74.50
2023-05-03T14:47:31.632Z,75.23
2023-05-03T14:49:03.904Z,75.41
2023-05-03T14:50:36.271Z,75.88
2023-05-03T14:52:09.266Z,76.81
2023-05-03T14:53:41.373Z,76.39
2023-05-03T14:55:13.462Z,76.79
2023-05-03T14:56:45.750Z,76.75
2023-05-03T14:58:17.914Z,77.11
2023-05-03T14:59:50.066Z,77.09
2023-05-03T15:01:22.731Z,76.61
2023-05-03T15:02:56.592Z,78.17
2023-05-03T15:04:29.525Z,79.13
2023-05-03T15:06:01.657Z,79.61
2023-05-03T15:07:34.873Z,80.74
2023-05-03T15:09:08.879Z,81.26
2023-05-03T15:10:41.907Z,82.05
2023-05-03T15:12:14.616Z,82.64
2023-05-03T15:13:47.308Z,82.80
2023-05-03T15:15:19.658Z,83.38
2023-05-03T15:16:51.989Z,83.71
2023-05-03T15:18:25.049Z,84.25
2023-05-03T15:19:57.634Z,84.65
2023-05-03T15:21:29.723Z,85.05
2023-05-03T15:23:02.832Z,85.44
2023-05-03T15:24:35.073Z,85.93
2023-05-03T15:26:07.551Z,86.05
2023-05-03T15:27:39.659Z,86.26
2023-05-03T15:29:11.818Z,86.06
2023-05-03T15:30:43.901Z,85.75
2023-05-03T15:32:16.470Z,85.38
2023-05-03T15:33:48.603Z,84.97
2023-05-03T15:35:21.633Z,84.84
2023-05-03T15:36:53.959Z,85.22
2023-05-03T15:38:26.149Z,85.28
2023-05-03T15:39:58.282Z,85.51
2023-05-03T15:41:30.363Z,85.91
2023-05-03T15:43:02.538Z,86.35
2023-05-03T15:44:34.676Z,86.33
2023-05-03T15:46:07.238Z,86.50
2023-05-03T15:47:42.917Z,86.95
2023-05-03T15:49:15.154Z,87.12
2023-05-03T15:50:47.261Z,87.19
2023-05-03T15:52:19.370Z,87.29
2023-05-03T15:53:52.369Z,87.17
2023-05-03T15:55:24.554Z,87.48
2023-05-03T15:56:56.783Z,87.89
2023-05-03T15:58:30.765Z,87.97
2023-05-03T16:00:03.843Z,88.31
2023-05-03T16:01:37.559Z,88.44
2023-05-03T16:03:09.752Z,88.67
2023-05-03T16:04:41.973Z,88.49
2023-05-03T16:06:17.215Z,88.68
2023-05-03T16:07:49.820Z,89.17
2023-05-03T16:09:23.181Z,89.53
2023-05-03T16:10:55.191Z,88.39
2023-05-03T16:12:27.864Z,87.79
2023-05-03T16:13:59.965Z,87.76
2023-05-03T16:15:32.181Z,87.22
2023-05-03T16:17:04.520Z,87.24
2023-05-03T16:18:36.638Z,87.15
2023-05-03T16:20:12.801Z,86.72
2023-05-03T16:21:44.909Z,86.67
2023-05-03T16:23:17.327Z,86.80
2023-05-03T16:24:49.635Z,86.63
2023-05-03T16:26:21.978Z,86.50
2023-05-03T16:27:54.410Z,86.53
2023-05-03T16:29:26.899Z,86.14
2023-05-03T16:30:59.002Z,86.31
2023-05-03T16:32:31.134Z,86.05
2023-05-03T16:34:03.268Z,85.61
2023-05-03T16:35:35.605Z,85.43
2023-05-03T16:37:07.725Z,85.40
2023-05-03T16:38:40.708Z,85.30
2023-05-03T16:40:12.957Z,85.45
2023-05-03T16:41:45.120Z,85.63
2023-05-03T16:43:18.854Z,85.42
2023-05-03T16:46:23.811Z,86.32
2023-05-03T16:47:56.426Z,86.87
2023-05-03T16:49:28.785Z,87.33
2023-05-03T16:51:01.215Z,87.66
2023-05-03T16:52:37.997Z,88.13
2023-05-03T16:54:10.258Z,88.36
2023-05-03T16:55:42.550Z,88.73
2023-05-03T16:57:14.821Z,89.16
2023-05-03T16:58:47.367Z,89.16
2023-05-03T17:00:21.409Z,89.27
2023-05-03T17:01:53.555Z,89.38
2023-05-03T17:03:26.260Z,89.32
2023-05-03T17:04:58.808Z,89.49
2023-05-03T17:06:30.924Z,89.80
2023-05-03T17:08:03.440Z,89.95
2023-05-03T17:09:35.491Z,89.79
2023-05-03T17:11:13.999Z,89.70
2023-05-03T17:12:48.158Z,90.09
2023-05-03T17:14:21.308Z,90.35
2023-05-03T17:15:53.462Z,90.52
2023-05-03T17:17:25.594Z,90.45
2023-05-03T17:18:57.976Z,90.59
2023-05-03T17:20:30.481Z,90.76
2023-05-03T17:22:02.562Z,90.92
2023-05-03T17:23:38.827Z,91.07
2023-05-03T17:25:11.199Z,90.85
2023-05-03T17:26:43.294Z,90.94
2023-05-03T17:28:15.462Z,90.32
2023-05-03T17:29:47.948Z,89.67
2023-05-03T17:31:20.027Z,89.60
2023-05-03T17:32:52.179Z,89.08
2023-05-03T17:34:25.437Z,89.05
2023-05-03T17:35:57.593Z,89.25
2023-05-03T17:37:29.830Z,89.65
2023-05-03T17:39:02.444Z,89.74
2023-05-03T17:40:35.386Z,89.84
2023-05-03T17:42:08.499Z,89.91
2023-05-03T17:43:40.697Z,89.99
2023-05-03T17:45:14.336Z,90.18
2023-05-03T17:46:46.604Z,90.43
2023-05-03T17:48:18.802Z,90.65
2023-05-03T17:49:51.037Z,90.70
2023-05-03T17:51:23.235Z,90.93
2023-05-03T17:52:55.417Z,91.39
2023-05-03T17:54:30.860Z,91.75
2023-05-03T17:56:02.954Z,91.92
2023-05-03T17:57:37.258Z,92.47
2023-05-03T17:59:09.371Z,92.56
2023-05-03T18:00:41.628Z,92.54
2023-05-03T18:02:14.101Z,92.47
2023-05-03T18:03:46.330Z,92.63
2023-05-03T18:05:18.811Z,92.58
2023-05-03T18:06:50.961Z,92.55
2023-05-03T18:08:23.306Z,92.65
2023-05-03T18:09:55.581Z,92.71
2023-05-03T18:11:27.818Z,92.82
2023-05-03T18:12:59.977Z,92.84
2023-05-03T18:14:35.829Z,92.96
2023-05-03T18:16:08.633Z,93.11
2023-05-03T18:17:40.796Z,92.99
2023-05-03T18:19:13.736Z,93.20
2023-05-03T18:20:45.856Z,93.07
2023-05-03T18:22:17.957Z,93.37
2023-05-03T18:23:50.132Z,93.33
2023-05-03T18:25:22.286Z,93.07
2023-05-03T18:26:54.378Z,93.23
2023-05-03T18:28:26.507Z,93.20
2023-05-03T18:29:58.603Z,93.23
2023-05-03T18:31:30.751Z,93.19
2023-05-03T18:33:03.030Z,93.29
2023-05-03T18:34:37.759Z,93.24
2023-05-03T18:36:12.005Z,93.38
2023-05-03T18:37:44.130Z,93.40
2023-05-03T18:39:17.513Z,93.63
2023-05-03T18:40:51.775Z,93.46
2023-05-03T18:42:23.912Z,93.55
2023-05-03T18:43:57.843Z,93.65
2023-05-03T18:45:29.983Z,93.64
